createdAt,value
2018-09-03T00:00:36.480Z,16.70
2018-09-03T00:03:04.927Z,13.00
2018-09-03T00:05:33.274Z,13.00
2018-09-03T00:08:01.620Z,13.20
2018-09-03T00:10:29.958Z,15.07
2018-09-03T00:12:58.315Z,12.87
2018-09-03T00:15:26.646Z,13.73
2018-09-03T00:17:54.998Z,13.87
2018-09-03T00:20:23.372Z,15.43
2018-09-03T00:22:51.748Z,13.70
2018-09-03T00:25:20.132Z,15.27
2018-09-03T00:27:48.516Z,14.13
2018-09-03T00:30:16.845Z,14.10
2018-09-03T00:32:50.435Z,14.60
2018-09-03T00:35:24.176Z,14.27
2018-09-03T00:37:57.867Z,14.40
2018-09-03T00:40:31.517Z,14.90
2018-09-03T00:43:05.189Z,14.03
2018-09-03T00:45:38.906Z,14.47
2018-09-03T00:48:07.258Z,16.50
2018-09-03T00:50:35.621Z,15.27
2018-09-03T00:53:03.986Z,13.33
2018-09-03T00:55:32.348Z,14.80
2018-09-03T00:58:00.719Z,15.33
2018-09-03T01:00:29.115Z,16.23
2018-09-03T01:02:57.471Z,15.93
2018-09-03T01:05:25.839Z,15.73
2018-09-03T01:07:54.219Z,18.90
2018-09-03T01:10:22.659Z,18.30
2018-09-03T01:12:51.016Z,18.00
2018-09-03T01:15:19.491Z,18.47
2018-09-03T01:17:47.871Z,23.63
2018-09-03T01:20:16.250Z,18.23
2018-09-03T01:22:44.571Z,16.93
2018-09-03T01:25:12.875Z,17.43
2018-09-03T01:27:41.305Z,14.80
2018-09-03T01:30:09.673Z,16.63
2018-09-03T01:32:38.031Z,16.60
2018-09-03T01:35:06.403Z,17.07
2018-09-03T01:37:34.755Z,16.87
2018-09-03T01:40:03.103Z,16.57
2018-09-03T01:42:31.507Z,17.50
2018-09-03T01:44:59.872Z,17.93
2018-09-03T01:47:28.279Z,21.67
2018-09-03T01:49:56.647Z,19.00
2018-09-03T01:52:25.012Z,20.43
2018-09-03T01:54:53.691Z,19.27
2018-09-03T01:57:22.123Z,18.23
2018-09-03T01:59:50.471Z,19.77
2018-09-03T02:02:18.812Z,18.90
2018-09-03T02:04:47.160Z,20.03
2018-09-03T02:07:15.516Z,20.43
2018-09-03T02:09:43.861Z,20.40
2018-09-03T02:12:12.613Z,20.40
2018-09-03T02:14:41.955Z,21.00
2018-09-03T02:17:11.356Z,19.70
2018-09-03T02:19:39.735Z,20.07
2018-09-03T02:22:08.376Z,22.20
2018-09-03T02:24:36.976Z,24.70
2018-09-03T02:27:05.366Z,21.23
2018-09-03T02:29:33.694Z,31.57
2018-09-03T02:32:02.025Z,23.20
2018-09-03T02:34:30.368Z,23.97
2018-09-03T02:36:58.772Z,26.47
2018-09-03T02:39:27.112Z,24.27
2018-09-03T02:41:55.470Z,22.67
2018-09-03T02:44:23.846Z,22.67
2018-09-03T02:46:52.320Z,24.83
2018-09-03T02:49:20.700Z,23.80
2018-09-03T02:51:49.062Z,24.03
2018-09-03T02:54:17.474Z,22.67
2018-09-03T02:56:45.820Z,25.07
2018-09-03T02:59:14.162Z,26.37
2018-09-03T03:01:42.524Z,25.43
2018-09-03T03:04:10.890Z,25.03
2018-09-03T03:06:39.264Z,27.57
2018-09-03T03:09:08.588Z,22.63
2018-09-03T03:11:37.608Z,25.63
2018-09-03T03:14:05.996Z,26.43
2018-09-03T03:16:34.393Z,21.17
2018-09-03T03:19:02.994Z,21.20
2018-09-03T03:21:31.371Z,24.83
2018-09-03T03:23:59.734Z,27.07
2018-09-03T03:26:28.106Z,26.77
2018-09-03T03:28:56.502Z,28.23
2018-09-03T03:31:24.897Z,29.63
2018-09-03T03:33:53.891Z,30.20
2018-09-03T03:36:22.314Z,30.57
2018-09-03T03:38:50.647Z,33.40
2018-09-03T03:41:19.014Z,34.80
2018-09-03T03:43:47.366Z,30.87
2018-09-03T03:46:15.719Z,31.30
2018-09-03T03:48:44.091Z,28.60
2018-09-03T03:51:12.459Z,37.33
2018-09-03T03:53:40.862Z,32.87
2018-09-03T03:56:09.223Z,37.47
2018-09-03T03:58:37.619Z,37.40
2018-09-03T04:01:06.023Z,34.80
2018-09-03T04:03:34.377Z,36.47
2018-09-03T04:06:02.727Z,33.10
2018-09-03T04:08:31.084Z,43.37
2018-09-03T04:10:59.477Z,38.07
2018-09-03T04:13:29.127Z,34.67
2018-09-03T04:15:58.027Z,32.53
2018-09-03T04:18:26.413Z,30.13
2018-09-03T04:20:54.775Z,30.83
2018-09-03T04:23:23.276Z,29.77
2018-09-03T04:25:51.532Z,35.80
2018-09-03T04:28:19.936Z,35.77
2018-09-03T04:30:48.362Z,34.43
2018-09-03T04:33:16.738Z,38.10
2018-09-03T04:35:45.070Z,40.60
2018-09-03T04:38:13.428Z,31.07
2018-09-03T04:40:41.832Z,37.17
2018-09-03T04:43:10.174Z,39.80
2018-09-03T04:45:38.650Z,40.67
2018-09-03T04:48:07.150Z,39.70
2018-09-03T04:50:35.446Z,41.10
2018-09-03T04:53:03.859Z,38.17
2018-09-03T04:55:32.203Z,39.60
2018-09-03T04:58:00.786Z,36.10
2018-09-03T05:00:29.161Z,34.20
2018-09-03T05:02:57.531Z,33.47
2018-09-03T05:05:25.901Z,32.17
2018-09-03T05:07:54.275Z,29.57
2018-09-03T05:10:22.687Z,34.33
2018-09-03T05:12:51.139Z,33.50
2018-09-03T05:15:19.504Z,33.73
2018-09-03T05:17:47.907Z,35.00
2018-09-03T05:20:16.280Z,42.70
2018-09-03T05:22:44.703Z,37.93
2018-09-03T05:25:13.119Z,39.87
2018-09-03T05:27:41.427Z,39.73
2018-09-03T05:30:09.895Z,44.40
2018-09-03T05:32:38.677Z,39.53
2018-09-03T05:35:07.255Z,41.27
2018-09-03T05:37:35.622Z,43.00
2018-09-03T05:40:04.108Z,47.67
2018-09-03T05:42:32.479Z,46.90
2018-09-03T05:45:00.836Z,44.50
2018-09-03T05:47:29.241Z,44.97
2018-09-03T05:49:57.639Z,50.70
2018-09-03T05:52:26.015Z,50.93
2018-09-03T05:54:54.490Z,46.30
2018-09-03T05:57:23.038Z,54.70
2018-09-03T05:59:51.397Z,58.83
2018-09-03T06:02:19.787Z,58.03
2018-09-03T06:04:48.181Z,57.73
2018-09-03T06:07:16.596Z,49.40
2018-09-03T06:09:44.954Z,50.83
2018-09-03T06:12:13.361Z,57.27
2018-09-03T06:14:41.731Z,55.57
2018-09-03T06:17:10.106Z,53.33
2018-09-03T06:19:38.479Z,50.50
2018-09-03T06:22:06.894Z,53.17
2018-09-03T06:24:35.281Z,50.57
2018-09-03T06:27:03.957Z,55.30
2018-09-03T06:29:32.303Z,51.13
2018-09-03T06:32:00.696Z,62.27
2018-09-03T06:34:29.088Z,64.07
2018-09-03T06:36:57.444Z,71.17
2018-09-03T06:39:25.804Z,67.50
2018-09-03T06:41:54.401Z,68.67
2018-09-03T06:44:22.745Z,76.63
2018-09-03T06:46:51.138Z,86.07
2018-09-03T06:49:19.514Z,81.47
2018-09-03T06:51:47.868Z,83.03
2018-09-03T06:54:16.220Z,79.80
2018-09-03T06:56:44.615Z,86.53
2018-09-03T06:59:12.981Z,80.57
2018-09-03T07:01:41.306Z,80.47
2018-09-03T07:04:09.683Z,76.97
2018-09-03T07:06:38.086Z,71.97
2018-09-03T07:09:09.025Z,72.90
2018-09-03T07:11:37.431Z,74.03
2018-09-03T07:14:06.099Z,77.67
2018-09-03T07:16:34.492Z,82.93
2018-09-03T07:19:02.872Z,76.40
2018-09-03T07:21:31.260Z,78.53
2018-09-03T07:23:59.692Z,77.17
2018-09-03T07:26:28.125Z,79.90
2018-09-03T07:28:57.352Z,82.13
2018-09-03T07:31:25.695Z,83.57
2018-09-03T07:33:54.074Z,81.13
2018-09-03T07:36:22.453Z,77.47
2018-09-03T07:38:50.841Z,71.93
2018-09-03T07:41:19.234Z,70.73
2018-09-03T07:43:47.630Z,70.30
2018-09-03T07:46:15.993Z,74.20
2018-09-03T07:48:44.360Z,66.07
2018-09-03T07:51:12.718Z,65.83
2018-09-03T07:53:41.051Z,68.63
2018-09-03T07:56:09.435Z,66.20
2018-09-03T07:58:37.795Z,67.33
2018-09-03T08:01:06.350Z,68.00
2018-09-03T08:03:34.773Z,72.07
2018-09-03T08:06:03.132Z,66.00
2018-09-03T08:08:31.539Z,60.60
2018-09-03T08:10:59.928Z,61.30
2018-09-03T08:13:33.528Z,58.73
2018-09-03T08:16:01.940Z,59.50
2018-09-03T08:18:30.324Z,56.27
2018-09-03T08:20:58.693Z,56.50
2018-09-03T08:23:27.054Z,49.77
2018-09-03T08:25:55.441Z,49.33
2018-09-03T08:28:23.907Z,45.53
2018-09-03T08:30:52.242Z,52.70
2018-09-03T08:33:20.637Z,46.67
2018-09-03T08:35:49.001Z,46.93
2018-09-03T08:38:17.371Z,43.43
2018-09-03T08:40:45.707Z,45.60
2018-09-03T08:43:14.180Z,37.23
2018-09-03T08:45:42.553Z,36.17
2018-09-03T08:48:10.961Z,35.90
2018-09-03T08:50:39.743Z,35.47
2018-09-03T08:53:08.930Z,35.43
2018-09-03T08:55:37.317Z,35.00
2018-09-03T08:58:05.742Z,39.70
2018-09-03T09:00:34.167Z,34.97
2018-09-03T09:03:02.552Z,37.27
2018-09-03T09:05:30.907Z,35.10
2018-09-03T09:07:59.285Z,37.80
2018-09-03T09:10:27.675Z,36.47
2018-09-03T09:12:56.013Z,40.57
2018-09-03T09:15:24.381Z,37.10
2018-09-03T09:17:52.786Z,38.97
2018-09-03T09:20:21.168Z,34.37
2018-09-03T09:22:49.543Z,35.67
2018-09-03T09:25:17.945Z,36.20
2018-09-03T09:27:46.373Z,33.77
2018-09-03T09:30:14.728Z,37.13
2018-09-03T09:32:43.163Z,38.53
2018-09-03T09:35:11.535Z,37.17
2018-09-03T09:37:39.914Z,35.60
2018-09-03T09:40:08.347Z,37.80
2018-09-03T09:42:39.320Z,38.90
2018-09-03T09:45:07.739Z,37.57
2018-09-03T09:47:36.333Z,38.10
2018-09-03T09:50:04.779Z,36.40
2018-09-03T09:52:33.491Z,40.67
2018-09-03T09:55:01.967Z,36.10
2018-09-03T09:57:30.328Z,37.17
2018-09-03T09:59:58.950Z,36.70
2018-09-03T10:02:27.646Z,35.70
2018-09-03T10:04:56.004Z,39.83
2018-09-03T10:07:24.387Z,36.47
2018-09-03T10:09:52.989Z,38.70
2018-09-03T10:12:35.808Z,37.67
2018-09-03T10:15:04.201Z,33.67
2018-09-03T10:17:32.576Z,38.83
2018-09-03T10:20:00.962Z,38.93
2018-09-03T10:22:29.455Z,37.23
2018-09-03T10:24:57.799Z,34.50
2018-09-03T10:27:26.202Z,36.10
2018-09-03T10:29:54.592Z,38.03
2018-09-03T10:32:23.392Z,37.43
2018-09-03T10:34:51.768Z,35.83
2018-09-03T10:37:20.152Z,36.07
2018-09-03T10:39:48.504Z,36.97
2018-09-03T10:42:21.133Z,35.50
2018-09-03T10:44:49.470Z,36.83
2018-09-03T10:47:18.045Z,33.37
2018-09-03T10:49:46.321Z,34.20
2018-09-03T10:52:14.687Z,36.07
2018-09-03T10:54:43.093Z,34.67
2018-09-03T10:57:11.526Z,35.00
2018-09-03T10:59:40.208Z,35.07
2018-09-03T11:02:08.887Z,35.10
2018-09-03T11:04:37.485Z,33.67
2018-09-03T11:07:06.167Z,35.87
2018-09-03T11:09:34.536Z,34.10
2018-09-03T11:12:03.034Z,34.63
2018-09-03T11:14:31.418Z,37.73
2018-09-03T11:16:59.823Z,32.60
2018-09-03T11:19:30.270Z,34.53
2018-09-03T11:21:58.639Z,33.13
2018-09-03T11:24:27.109Z,31.23
2018-09-03T11:26:55.502Z,33.33
2018-09-03T11:29:23.901Z,32.63
2018-09-03T11:31:52.240Z,34.87
2018-09-03T11:34:20.623Z,30.97
2018-09-03T11:36:49.029Z,32.60
2018-09-03T11:39:17.395Z,32.50
2018-09-03T11:41:45.777Z,27.37
2018-09-03T11:44:14.160Z,31.80
2018-09-03T11:46:42.528Z,29.37
2018-09-03T11:49:10.878Z,28.67
2018-09-03T11:51:39.292Z,31.07
2018-09-03T11:54:07.798Z,29.90
2018-09-03T11:56:36.173Z,31.67
2018-09-03T11:59:04.659Z,32.00
2018-09-03T12:01:33.046Z,31.10
2018-09-03T12:04:01.419Z,33.20
2018-09-03T12:06:29.829Z,29.73
2018-09-03T12:08:58.179Z,28.03
2018-09-03T12:11:26.586Z,28.87
2018-09-03T12:13:55.050Z,32.03
2018-09-03T12:16:25.725Z,30.83
2018-09-03T12:18:56.304Z,31.03
2018-09-03T12:21:24.652Z,31.20
2018-09-03T12:23:53.045Z,34.80
2018-09-03T12:26:21.460Z,29.77
2018-09-03T12:28:49.852Z,27.73
2018-09-03T12:31:18.277Z,29.10
2018-09-03T12:33:46.683Z,28.07
2018-09-03T12:36:15.069Z,27.87
2018-09-03T12:38:43.491Z,28.23
2018-09-03T12:41:11.896Z,27.50
2018-09-03T12:43:40.397Z,26.53
2018-09-03T12:46:09.118Z,27.50
2018-09-03T12:48:37.467Z,29.43
2018-09-03T12:51:06.242Z,27.23
2018-09-03T12:53:34.878Z,27.20
2018-09-03T12:56:03.780Z,28.53
2018-09-03T12:58:32.201Z,27.33
2018-09-03T13:01:00.639Z,27.13
2018-09-03T13:03:28.989Z,26.93
2018-09-03T13:05:57.307Z,28.60
2018-09-03T13:08:25.697Z,30.97
2018-09-03T13:10:54.053Z,32.97
2018-09-03T13:13:22.462Z,33.13
2018-09-03T13:15:50.841Z,32.13
2018-09-03T13:18:19.225Z,32.50
2018-09-03T13:20:47.632Z,32.07
2018-09-03T13:23:16.571Z,26.83
2018-09-03T13:25:44.956Z,27.77
2018-09-03T13:28:13.464Z,27.00
2018-09-03T13:30:41.836Z,26.90
2018-09-03T13:33:10.225Z,26.70
2018-09-03T13:35:45.295Z,26.23
2018-09-03T13:38:13.693Z,25.73
2018-09-03T13:40:42.082Z,23.83
2018-09-03T13:43:10.450Z,26.70
2018-09-03T13:45:38.813Z,26.73
2018-09-03T13:48:07.181Z,25.03
2018-09-03T13:50:35.618Z,24.07
2018-09-03T13:53:03.961Z,28.33
2018-09-03T13:55:32.307Z,25.43
2018-09-03T13:58:00.693Z,24.00
2018-09-03T14:00:29.103Z,25.40
2018-09-03T14:02:57.536Z,25.40
2018-09-03T14:05:25.918Z,25.20
2018-09-03T14:07:54.327Z,27.30
2018-09-03T14:10:22.703Z,23.73
2018-09-03T14:12:51.074Z,25.17
2018-09-03T14:15:19.456Z,25.27
2018-09-03T14:17:47.865Z,26.87
2018-09-03T14:20:16.199Z,24.67
2018-09-03T14:22:44.545Z,26.17
2018-09-03T14:25:12.994Z,23.03
2018-09-03T14:27:41.366Z,28.50
2018-09-03T14:30:09.731Z,22.50
2018-09-03T14:32:38.112Z,22.53
2018-09-03T14:35:06.464Z,24.33
2018-09-03T14:37:34.844Z,22.90
2018-09-03T14:40:03.332Z,27.90
2018-09-03T14:42:32.198Z,24.57
2018-09-03T14:45:00.632Z,24.03
2018-09-03T14:47:29.842Z,27.07
2018-09-03T14:49:58.392Z,25.07
2018-09-03T14:52:26.805Z,28.23
2018-09-03T14:54:55.205Z,29.87
2018-09-03T14:57:23.592Z,24.20
2018-09-03T14:59:52.098Z,24.53
2018-09-03T15:02:20.512Z,23.73
2018-09-03T15:04:48.915Z,26.13
2018-09-03T15:07:17.531Z,25.60
2018-09-03T15:09:45.929Z,25.40
2018-09-03T15:12:14.312Z,25.00
2018-09-03T15:14:42.705Z,24.10
2018-09-03T15:17:11.117Z,26.60
2018-09-03T15:19:39.495Z,24.07
2018-09-03T15:22:07.878Z,24.57
2018-09-03T15:24:36.243Z,23.93
2018-09-03T15:27:04.657Z,24.40
2018-09-03T15:29:33.060Z,24.83
2018-09-03T15:32:01.466Z,23.07
2018-09-03T15:34:29.922Z,25.67
2018-09-03T15:36:58.313Z,27.23
2018-09-03T15:39:26.717Z,26.57
2018-09-03T15:41:55.145Z,27.20
2018-09-03T15:44:23.553Z,28.67
2018-09-03T15:46:51.940Z,23.17
2018-09-03T15:49:20.313Z,25.60
2018-09-03T15:51:48.705Z,23.93
2018-09-03T15:54:18.072Z,25.30
2018-09-03T15:56:46.552Z,24.07
2018-09-03T15:59:14.920Z,24.30
2018-09-03T16:01:43.256Z,22.40
2018-09-03T16:04:11.625Z,21.70
2018-09-03T16:06:40.057Z,21.80
2018-09-03T16:09:09.798Z,21.00
2018-09-03T16:11:38.303Z,24.53
2018-09-03T16:14:07.492Z,20.70
2018-09-03T16:16:36.014Z,21.73
2018-09-03T16:19:04.514Z,21.73
2018-09-03T16:21:32.929Z,23.10
2018-09-03T16:24:01.336Z,21.93
2018-09-03T16:26:30.228Z,22.17
2018-09-03T16:28:58.649Z,22.10
2018-09-03T16:31:27.026Z,21.40
2018-09-03T16:33:55.525Z,21.63
2018-09-03T16:36:23.913Z,24.47
2018-09-03T16:38:52.511Z,20.90
2018-09-03T16:41:20.797Z,20.80
2018-09-03T16:43:49.176Z,20.73
2018-09-03T16:46:17.572Z,21.00
2018-09-03T16:48:45.956Z,22.63
2018-09-03T16:51:14.323Z,21.33
2018-09-03T16:53:42.708Z,21.60
2018-09-03T16:56:11.101Z,20.80
2018-09-03T16:58:39.515Z,20.90
2018-09-03T17:01:08.988Z,21.37
2018-09-03T17:03:37.373Z,22.00
2018-09-03T17:06:06.043Z,20.70
2018-09-03T17:08:34.586Z,20.07
2018-09-03T17:11:03.026Z,22.07
2018-09-03T17:13:31.507Z,21.57
2018-09-03T17:15:59.868Z,19.40
2018-09-03T17:18:28.238Z,20.73
2018-09-03T17:20:56.574Z,21.10
2018-09-03T17:23:24.911Z,20.33
2018-09-03T17:25:53.279Z,20.50
2018-09-03T17:28:21.649Z,24.77
2018-09-03T17:30:50.065Z,20.23
2018-09-03T17:33:18.463Z,21.37
2018-09-03T17:35:46.887Z,21.43
2018-09-03T17:38:15.350Z,21.53
2018-09-03T17:40:43.795Z,20.90
2018-09-03T17:43:12.151Z,24.60
2018-09-03T17:45:40.566Z,20.77
2018-09-03T17:48:09.921Z,20.73
2018-09-03T17:50:38.373Z,22.27
2018-09-03T17:53:06.783Z,23.00
2018-09-03T17:55:35.217Z,27.43
2018-09-03T17:58:03.679Z,25.17
2018-09-03T18:00:32.082Z,23.37
2018-09-03T18:03:00.425Z,25.03
2018-09-03T18:05:28.859Z,24.67
2018-09-03T18:07:57.536Z,24.23
2018-09-03T18:10:25.938Z,24.03
2018-09-03T18:12:54.324Z,24.97
2018-09-03T18:15:22.883Z,22.37
2018-09-03T18:17:51.300Z,24.70
2018-09-03T18:20:19.673Z,24.53
2018-09-03T18:22:48.016Z,23.83
2018-09-03T18:25:17.070Z,27.67
2018-09-03T18:27:45.464Z,28.03
2018-09-03T18:30:13.903Z,25.30
2018-09-03T18:32:42.946Z,27.03
2018-09-03T18:35:11.330Z,25.07
2018-09-03T18:37:39.790Z,23.93
2018-09-03T18:40:08.179Z,23.37
2018-09-03T18:42:36.516Z,25.73
2018-09-03T18:45:05.232Z,23.53
2018-09-03T18:47:34.554Z,23.23
2018-09-03T18:50:03.015Z,24.67
2018-09-03T18:52:31.409Z,25.83
2018-09-03T18:54:59.817Z,29.80
2018-09-03T18:57:28.404Z,31.23
2018-09-03T18:59:56.880Z,28.23
2018-09-03T19:02:25.382Z,32.90
2018-09-03T19:04:55.256Z,34.33
2018-09-03T19:07:23.596Z,32.90
2018-09-03T19:09:52.113Z,37.23
2018-09-03T19:12:20.536Z,36.50
2018-09-03T19:14:48.948Z,42.23
2018-09-03T19:17:17.344Z,30.60
2018-09-03T19:19:45.718Z,34.70
2018-09-03T19:22:14.227Z,37.50
2018-09-03T19:24:42.542Z,36.60
2018-09-03T19:27:11.116Z,40.67
2018-09-03T19:29:39.740Z,46.07
2018-09-03T19:32:08.115Z,43.67
2018-09-03T19:34:36.614Z,45.60
2018-09-03T19:37:05.010Z,38.87
2018-09-03T19:39:33.381Z,42.63
2018-09-03T19:42:01.749Z,39.77
2018-09-03T19:44:30.113Z,43.20
2018-09-03T19:46:58.515Z,44.10
2018-09-03T19:49:26.876Z,36.83
2018-09-03T19:51:55.241Z,37.13
2018-09-03T19:54:23.633Z,41.97
2018-09-03T19:56:53.311Z,38.87
2018-09-03T19:59:21.873Z,41.13
2018-09-03T20:01:50.281Z,39.73
2018-09-03T20:04:18.652Z,42.70
2018-09-03T20:06:47.064Z,39.20
2018-09-03T20:09:15.501Z,41.90
2018-09-03T20:11:43.919Z,41.13
2018-09-03T20:14:12.281Z,47.43
2018-09-03T20:16:40.663Z,43.30
2018-09-03T20:19:09.043Z,39.73
2018-09-03T20:21:37.419Z,43.57
2018-09-03T20:24:05.831Z,41.23
2018-09-03T20:26:34.168Z,44.70
2018-09-03T20:29:02.533Z,39.57
2018-09-03T20:31:30.903Z,42.47
2018-09-03T20:33:59.253Z,42.17
2018-09-03T20:36:27.678Z,47.40
2018-09-03T20:38:55.992Z,44.57
2018-09-03T20:41:24.319Z,48.40
2018-09-03T20:43:52.699Z,44.13
2018-09-03T20:46:21.132Z,48.00
2018-09-03T20:48:49.487Z,46.70
2018-09-03T20:51:17.903Z,44.57
2018-09-03T20:53:46.259Z,43.87
2018-09-03T20:56:14.605Z,44.80
2018-09-03T20:58:42.985Z,44.13
2018-09-03T21:01:11.369Z,41.57
2018-09-03T21:03:39.730Z,45.03
2018-09-03T21:06:08.088Z,46.37
2018-09-03T21:08:36.477Z,43.33
2018-09-03T21:11:04.847Z,47.77
2018-09-03T21:13:33.470Z,44.07
2018-09-03T21:16:02.015Z,40.33
2018-09-03T21:18:30.417Z,42.13
2018-09-03T21:20:58.822Z,45.70
2018-09-03T21:23:27.183Z,44.70
2018-09-03T21:25:55.592Z,44.30
2018-09-03T21:28:24.017Z,41.23
2018-09-03T21:30:52.352Z,44.87
2018-09-03T21:33:20.690Z,37.10
2018-09-03T21:35:49.044Z,40.03
2018-09-03T21:38:17.514Z,41.20
2018-09-03T21:40:45.910Z,38.27
2018-09-03T21:43:14.262Z,38.23
2018-09-03T21:45:42.579Z,38.77
2018-09-03T21:48:10.988Z,40.27
2018-09-03T21:50:39.311Z,37.17
2018-09-03T21:53:07.687Z,39.57
2018-09-03T21:55:42.532Z,40.10
2018-09-03T21:58:10.887Z,38.27
2018-09-03T22:00:39.278Z,38.30
2018-09-03T22:03:07.645Z,37.40
2018-09-03T22:05:36.089Z,42.23
2018-09-03T22:08:04.447Z,39.30
2018-09-03T22:10:32.801Z,41.47
2018-09-03T22:13:01.159Z,42.43
2018-09-03T22:15:29.593Z,38.70
2018-09-03T22:17:57.969Z,40.40
2018-09-03T22:20:26.579Z,43.17
2018-09-03T22:22:55.056Z,38.43
2018-09-03T22:25:23.695Z,38.47
2018-09-03T22:27:52.079Z,37.67
2018-09-03T22:30:20.486Z,33.50
2018-09-03T22:32:48.819Z,36.17
2018-09-03T22:35:17.202Z,38.07
2018-09-03T22:37:45.534Z,37.63
2018-09-03T22:40:13.883Z,33.73
2018-09-03T22:42:42.264Z,36.13
2018-09-03T22:45:10.672Z,36.07
2018-09-03T22:47:38.990Z,35.07
2018-09-03T22:50:07.355Z,36.87
2018-09-03T22:52:35.696Z,31.43
2018-09-03T22:55:04.104Z,35.27
2018-09-03T22:57:32.430Z,31.20
2018-09-03T23:00:00.789Z,34.43
2018-09-03T23:02:29.210Z,31.90
2018-09-03T23:04:57.570Z,33.60
2018-09-03T23:07:25.944Z,33.97
2018-09-03T23:09:54.316Z,35.40
2018-09-03T23:12:22.660Z,34.87
2018-09-03T23:14:51.009Z,32.40
2018-09-03T23:17:19.376Z,36.40
2018-09-03T23:19:47.730Z,32.70
2018-09-03T23:22:16.094Z,34.50
2018-09-03T23:24:44.460Z,35.40
2018-09-03T23:27:13.005Z,33.20
2018-09-03T23:29:41.374Z,37.37
2018-09-03T23:32:09.742Z,37.63
2018-09-03T23:34:38.090Z,37.27
2018-09-03T23:37:06.476Z,36.73
2018-09-03T23:39:34.850Z,33.30
2018-09-03T23:42:03.221Z,37.90
2018-09-03T23:44:31.582Z,37.40
2018-09-03T23:46:59.936Z,36.60
2018-09-03T23:49:28.288Z,40.53
2018-09-03T23:51:56.726Z,37.77
2018-09-03T23:54:25.143Z,40.17
2018-09-03T23:56:53.484Z,39.27
2018-09-03T23:59:22.049Z,45.50
